LBWNLBSF

Guest
Details From LBWN - Varna
To LBSF - Sofia
Flight Number -
Tags Generated
Created
Modified
Stats Distance 197 nm / 364 km
Max Altitude 0 ft / 0 m
Waypoints 2
Social Downloads 0
Likes 0
Share VATSIM

Download

Looking for another format? Having issues loading an existing format? Contact us
Advertisement - Login to hide

Notes

Generated

Route

LBWN LBSF

ID Type Via Altitude Latitude Longitude Leg Dist Tot Dist Heading (true) Name
O LBWN APT - 0 ft / 0 m 43.23344˚ 27.80983˚ - 0 nm - -
O LBSF APT - 0 ft / 0 m 42.69826˚ 23.39477˚ 196 nm 196 nm 262° / 259° -

Altitude Profile

Advertisement - Login to hide

Weather


0- 5 10 15 20 25 30 35+ Temperature / ° C

Clouds and Precipitation
Forecast for 2018-05-21 12:00 UTC. Updated 2 hours ago

Ground ~20,000 ft ~40,000 ft Winds

LBWN

Details ICAO LBWN (VAR)
Name Varna
Region Bulgaria
Timezone Europe/Sofia (UTC+3.0)
Stats Elevation 230 ft / 70 m (AMSL)
Location 43.232042° 27.825236°
Runways 1
Magnetic Variation 5.692° E

METAR

LBWN 211330Z 11012KT 9999 SCT021 20/16 Q1019 NOSIG

Decode

TAF

TAF LBWN 211100Z 2112/2212 10014KT 9999 FEW015 SCT045 PROB40 TEMPO 2112/2117 SHRA FEW030CB BKN040 BECMG 2117/2119 04012KT TEMPO 2122/2206 BKN015

Decode

Departure Runways

ID Width Length Bearing (true) Bearing (mag) Surface Threshold Offset Overrun Length
09 180 ft / 55 m 8,254 ft / 2,516 m 97.11° 91.42° Concrete 350 ft / 107 m 0 ft / 0 m
27 180 ft / 55 m 8,254 ft / 2,516 m 277.13° 271.44° Concrete 350 ft / 107 m 0 ft / 0 m

LBSF

Details ICAO LBSF (SOF)
Name Sofia
Region Bulgaria
Timezone Europe/Sofia (UTC+3.0)
Stats Elevation 1,741 ft / 531 m (AMSL)
Location 42.697130° 23.416722°
Runways 1
Magnetic Variation 4.979° E

METAR

LBSF 211330Z 15007KT 110V180 9999 FEW065 21/11 Q1017 NOSIG

Decode

TAF

TAF LBSF 211100Z 2112/2212 14010KT 9999 SCT040 TEMPO 2113/2117 5000 SHRA SCT030CB BKN040 TEMPO 2123/2207 BKN010

Decode

Destination Runways

ID Width Length Bearing (true) Bearing (mag) Surface Threshold Offset Overrun Length
09 148 ft / 45 m 11,801 ft / 3,597 m 93.99° 89.01° Asphalt 984 ft / 300 m 525 ft / 160 m
27 148 ft / 45 m 11,801 ft / 3,597 m 274.02° 269.04° Asphalt 0 ft / 0 m 525 ft / 160 m

Approach Navaids

Runway Type Ident Frequency Range Bearing (true) Bearing (mag) Slope Elevation
09 Localiser ISL 110.70 MHz 18 nm / 33 km 93.91° 88.93° - 1,741 ft / 531 m (AMSL)
09 Glidescope ISL 110.70 MHz 10 nm / 19 km 95.00° 90.02° 3.00° 1,741 ft / 531 m (AMSL)
09 DME ISL 110.70 MHz 18 nm / 33 km - - - 1,741 ft / 531 m (AMSL)
27 Localiser ISF 109.50 MHz 18 nm / 33 km 273.91° 268.93° - 1,741 ft / 531 m (AMSL)
27 Glidescope ISF 109.50 MHz 10 nm / 19 km 275.00° 270.02° 3.00° 1,741 ft / 531 m (AMSL)

Popular Alternatives